sensor_id;sensor_type;location;lat;lon;timestamp;temperature;humidity
12335;DHT22;6233;51.560;9.986;2023-04-06T00:00:13;2.50;99.90
12335;DHT22;6233;51.560;9.986;2023-04-06T00:03:15;2.40;99.90
12335;DHT22;6233;51.560;9.986;2023-04-06T00:06:18;2.40;99.90
12335;DHT22;6233;51.560;9.986;2023-04-06T00:09:19;2.50;99.90
12335;DHT22;6233;51.560;9.986;2023-04-06T00:12:21;2.50;99.90
12335;DHT22;6233;51.560;9.986;2023-04-06T00:15:23;2.60;99.90
12335;DHT22;6233;51.560;9.986;2023-04-06T00:18:25;2.50;99.90
12335;DHT22;6233;51.560;9.986;2023-04-06T00:21:28;2.60;99.90
12335;DHT22;6233;51.560;9.986;2023-04-06T00:24:29;2.60;99.90
12335;DHT22;6233;51.560;9.986;2023-04-06T00:27:31;2.50;99.90
12335;DHT22;6233;51.560;9.986;2023-04-06T00:30:33;2.40;99.90
12335;DHT22;6233;51.560;9.986;2023-04-06T00:33:35;2.40;99.90
12335;DHT22;6233;51.560;9.986;2023-04-06T00:36:37;2.40;99.90
12335;DHT22;6233;51.560;9.986;2023-04-06T00:39:38;2.40;99.90
12335;DHT22;6233;51.560;9.986;2023-04-06T00:42:41;2.50;99.90
12335;DHT22;6233;51.560;9.986;2023-04-06T00:45:43;2.50;99.90
12335;DHT22;6233;51.560;9.986;2023-04-06T00:48:45;2.40;99.90
12335;DHT22;6233;51.560;9.986;2023-04-06T00:51:46;2.40;99.90
12335;DHT22;6233;51.560;9.986;2023-04-06T00:54:49;2.40;99.90
12335;DHT22;6233;51.560;9.986;2023-04-06T00:57:51;2.40;99.90
12335;DHT22;6233;51.560;9.986;2023-04-06T01:00:53;2.40;99.90
12335;DHT22;6233;51.560;9.986;2023-04-06T01:03:55;2.30;99.90
12335;DHT22;6233;51.560;9.986;2023-04-06T01:06:57;2.30;99.90
12335;DHT22;6233;51.560;9.986;2023-04-06T01:09:59;2.20;99.90
12335;DHT22;6233;51.560;9.986;2023-04-06T01:13:01;2.20;99.90
12335;DHT22;6233;51.560;9.986;2023-04-06T01:16:03;2.20;99.90
12335;DHT22;6233;51.560;9.986;2023-04-06T01:19:09;2.20;99.90
12335;DHT22;6233;51.560;9.986;2023-04-06T01:22:18;2.20;99.90
12335;DHT22;6233;51.560;9.986;2023-04-06T01:25:20;2.20;99.90
12335;DHT22;6233;51.560;9.986;2023-04-06T01:28:22;2.20;99.90
12335;DHT22;6233;51.560;9.986;2023-04-06T01:31:24;2.20;99.90
12335;DHT22;6233;51.560;9.986;2023-04-06T01:34:26;2.10;99.90
12335;DHT22;6233;51.560;9.986;2023-04-06T01:37:28;2.10;99.90
12335;DHT22;6233;51.560;9.986;2023-04-06T01:40:31;2.00;99.90
12335;DHT22;6233;51.560;9.986;2023-04-06T01:43:33;2.00;99.90
12335;DHT22;6233;51.560;9.986;2023-04-06T01:46:35;2.00;99.90
12335;DHT22;6233;51.560;9.986;2023-04-06T01:49:37;2.00;99.90
12335;DHT22;6233;51.560;9.986;2023-04-06T01:52:39;1.90;99.90
12335;DHT22;6233;51.560;9.986;2023-04-06T01:55:41;1.90;99.90
12335;DHT22;6233;51.560;9.986;2023-04-06T01:58:43;2.00;99.90
12335;DHT22;6233;51.560;9.986;2023-04-06T02:01:45;2.00;99.90
12335;DHT22;6233;51.560;9.986;2023-04-06T02:04:47;2.10;99.90
12335;DHT22;6233;51.560;9.986;2023-04-06T02:07:48;2.10;99.90
12335;DHT22;6233;51.560;9.986;2023-04-06T02:10:50;2.10;99.90
12335;DHT22;6233;51.560;9.986;2023-04-06T02:13:52;2.10;99.90
12335;DHT22;6233;51.560;9.986;2023-04-06T02:16:54;2.10;99.90
12335;DHT22;6233;51.560;9.986;2023-04-06T02:19:56;2.10;99.90
12335;DHT22;6233;51.560;9.986;2023-04-06T02:22:58;2.10;99.90
12335;DHT22;6233;51.560;9.986;2023-04-06T02:26:01;2.10;99.90
12335;DHT22;6233;51.560;9.986;2023-04-06T02:29:03;2.10;99.90
12335;DHT22;6233;51.560;9.986;2023-04-06T02:32:05;2.10;99.90
12335;DHT22;6233;51.560;9.986;2023-04-06T02:35:07;2.10;99.90
12335;DHT22;6233;51.560;9.986;2023-04-06T02:38:09;2.00;99.90
12335;DHT22;6233;51.560;9.986;2023-04-06T02:41:11;2.00;99.90
12335;DHT22;6233;51.560;9.986;2023-04-06T02:44:13;2.00;99.90
12335;DHT22;6233;51.560;9.986;2023-04-06T02:47:15;2.00;99.90
12335;DHT22;6233;51.560;9.986;2023-04-06T02:50:17;1.90;99.90
12335;DHT22;6233;51.560;9.986;2023-04-06T02:53:18;1.90;99.90
12335;DHT22;6233;51.560;9.986;2023-04-06T02:56:20;1.80;99.90
12335;DHT22;6233;51.560;9.986;2023-04-06T02:59:23;1.80;99.90
12335;DHT22;6233;51.560;9.986;2023-04-06T03:02:24;1.70;99.90
12335;DHT22;6233;51.560;9.986;2023-04-06T03:05:27;1.70;99.90
12335;DHT22;6233;51.560;9.986;2023-04-06T03:08:28;1.70;99.90
12335;DHT22;6233;51.560;9.986;2023-04-06T03:11:30;1.70;99.90
12335;DHT22;6233;51.560;9.986;2023-04-06T03:14:32;1.70;99.90
12335;DHT22;6233;51.560;9.986;2023-04-06T03:17:34;1.70;99.90
12335;DHT22;6233;51.560;9.986;2023-04-06T03:20:36;1.70;99.90
12335;DHT22;6233;51.560;9.986;2023-04-06T03:23:38;1.70;99.90
12335;DHT22;6233;51.560;9.986;2023-04-06T03:26:40;1.70;99.90
12335;DHT22;6233;51.560;9.986;2023-04-06T03:29:42;1.70;99.90
12335;DHT22;6233;51.560;9.986;2023-04-06T03:32:44;1.60;99.90
12335;DHT22;6233;51.560;9.986;2023-04-06T03:35:46;1.60;99.90
12335;DHT22;6233;51.560;9.986;2023-04-06T03:38:48;1.60;99.90
12335;DHT22;6233;51.560;9.986;2023-04-06T03:41:50;1.50;99.90
12335;DHT22;6233;51.560;9.986;2023-04-06T03:44:52;1.50;99.90
12335;DHT22;6233;51.560;9.986;2023-04-06T03:47:54;1.40;99.90
12335;DHT22;6233;51.560;9.986;2023-04-06T03:50:56;1.40;99.90
12335;DHT22;6233;51.560;9.986;2023-04-06T03:53:58;1.60;99.90
12335;DHT22;6233;51.560;9.986;2023-04-06T03:56:59;1.60;99.90
12335;DHT22;6233;51.560;9.986;2023-04-06T04:00:02;1.60;99.90
12335;DHT22;6233;51.560;9.986;2023-04-06T04:03:03;1.60;99.90
12335;DHT22;6233;51.560;9.986;2023-04-06T04:06:06;1.60;99.90
12335;DHT22;6233;51.560;9.986;2023-04-06T04:09:08;1.50;99.90
12335;DHT22;6233;51.560;9.986;2023-04-06T04:12:10;1.50;99.90
12335;DHT22;6233;51.560;9.986;2023-04-06T04:15:12;1.40;99.90
12335;DHT22;6233;51.560;9.986;2023-04-06T04:18:13;1.40;99.90
12335;DHT22;6233;51.560;9.986;2023-04-06T04:21:15;1.40;99.90
12335;DHT22;6233;51.560;9.986;2023-04-06T04:24:17;1.40;99.90
12335;DHT22;6233;51.560;9.986;2023-04-06T04:27:19;1.50;99.90
12335;DHT22;6233;51.560;9.986;2023-04-06T04:30:22;1.60;99.90
12335;DHT22;6233;51.560;9.986;2023-04-06T04:33:23;1.50;99.90
12335;DHT22;6233;51.560;9.986;2023-04-06T04:36:28;1.50;99.90
12335;DHT22;6233;51.560;9.986;2023-04-06T04:39:30;1.50;99.90
12335;DHT22;6233;51.560;9.986;2023-04-06T04:42:33;1.50;99.90
12335;DHT22;6233;51.560;9.986;2023-04-06T04:45:35;1.60;99.90
12335;DHT22;6233;51.560;9.986;2023-04-06T04:48:37;1.60;99.90
12335;DHT22;6233;51.560;9.986;2023-04-06T04:51:41;1.50;99.90
12335;DHT22;6233;51.560;9.986;2023-04-06T04:54:42;1.50;99.90
12335;DHT22;6233;51.560;9.986;2023-04-06T04:57:44;1.40;99.90
12335;DHT22;6233;51.560;9.986;2023-04-06T05:00:46;1.40;99.90
12335;DHT22;6233;51.560;9.986;2023-04-06T05:03:48;1.40;99.90
12335;DHT22;6233;51.560;9.986;2023-04-06T05:06:50;1.30;99.90
12335;DHT22;6233;51.560;9.986;2023-04-06T05:09:52;1.40;99.90
12335;DHT22;6233;51.560;9.986;2023-04-06T05:12:54;1.40;99.90
12335;DHT22;6233;51.560;9.986;2023-04-06T05:15:56;1.40;99.90
12335;DHT22;6233;51.560;9.986;2023-04-06T05:18:58;1.50;99.90
12335;DHT22;6233;51.560;9.986;2023-04-06T05:21:59;1.60;99.90
12335;DHT22;6233;51.560;9.986;2023-04-06T05:25:02;1.60;99.90
12335;DHT22;6233;51.560;9.986;2023-04-06T05:28:04;1.60;99.90
12335;DHT22;6233;51.560;9.986;2023-04-06T05:31:06;1.50;99.90
12335;DHT22;6233;51.560;9.986;2023-04-06T05:34:09;1.60;99.90
12335;DHT22;6233;51.560;9.986;2023-04-06T05:37:11;1.60;99.90
12335;DHT22;6233;51.560;9.986;2023-04-06T05:40:13;1.60;99.90
12335;DHT22;6233;51.560;9.986;2023-04-06T05:43:15;1.70;99.90
12335;DHT22;6233;51.560;9.986;2023-04-06T05:46:18;1.90;99.90
12335;DHT22;6233;51.560;9.986;2023-04-06T05:49:20;2.20;99.90
12335;DHT22;6233;51.560;9.986;2023-04-06T05:52:22;3.00;99.90
12335;DHT22;6233;51.560;9.986;2023-04-06T05:55:23;4.30;99.90
12335;DHT22;6233;51.560;9.986;2023-04-06T05:58:25;5.70;99.90
12335;DHT22;6233;51.560;9.986;2023-04-06T06:01:27;6.80;99.90
12335;DHT22;6233;51.560;9.986;2023-04-06T06:04:30;7.60;99.90
12335;DHT22;6233;51.560;9.986;2023-04-06T06:07:32;8.50;99.90
12335;DHT22;6233;51.560;9.986;2023-04-06T06:10:34;9.40;99.90
12335;DHT22;6233;51.560;9.986;2023-04-06T06:13:36;10.20;99.90
12335;DHT22;6233;51.560;9.986;2023-04-06T06:16:38;10.80;97.10
12335;DHT22;6233;51.560;9.986;2023-04-06T06:19:40;11.20;95.90
12335;DHT22;6233;51.560;9.986;2023-04-06T06:22:41;11.60;94.90
12335;DHT22;6233;51.560;9.986;2023-04-06T06:26:00;11.80;92.10
12335;DHT22;6233;51.560;9.986;2023-04-06T06:29:03;11.60;92.80
12335;DHT22;6233;51.560;9.986;2023-04-06T06:32:07;11.80;91.90
12335;DHT22;6233;51.560;9.986;2023-04-06T06:35:10;12.00;91.60
12335;DHT22;6233;51.560;9.986;2023-04-06T06:38:12;11.80;92.50
12335;DHT22;6233;51.560;9.986;2023-04-06T06:41:14;11.50;92.30
12335;DHT22;6233;51.560;9.986;2023-04-06T06:44:15;11.50;92.60
12335;DHT22;6233;51.560;9.986;2023-04-06T06:47:18;11.50;93.00
12335;DHT22;6233;51.560;9.986;2023-04-06T06:50:20;11.60;93.40
12335;DHT22;6233;51.560;9.986;2023-04-06T06:53:22;11.40;93.70
12335;DHT22;6233;51.560;9.986;2023-04-06T06:56:24;11.30;94.30
12335;DHT22;6233;51.560;9.986;2023-04-06T06:59:28;10.90;95.60
12335;DHT22;6233;51.560;9.986;2023-04-06T07:02:30;10.90;96.00
12335;DHT22;6233;51.560;9.986;2023-04-06T07:05:35;10.90;94.30
12335;DHT22;6233;51.560;9.986;2023-04-06T07:08:41;10.90;92.90
12335;DHT22;6233;51.560;9.986;2023-04-06T07:11:42;10.70;94.00
12335;DHT22;6233;51.560;9.986;2023-04-06T07:14:44;10.70;98.60
12335;DHT22;6233;51.560;9.986;2023-04-06T07:17:46;10.70;96.20
12335;DHT22;6233;51.560;9.986;2023-04-06T07:20:48;10.80;93.90
12335;DHT22;6233;51.560;9.986;2023-04-06T07:23:52;11.00;93.80
12335;DHT22;6233;51.560;9.986;2023-04-06T07:26:54;11.10;92.70
12335;DHT22;6233;51.560;9.986;2023-04-06T07:29:57;11.20;93.20
12335;DHT22;6233;51.560;9.986;2023-04-06T07:32:59;11.30;93.30
12335;DHT22;6233;51.560;9.986;2023-04-06T07:36:22;11.20;93.30
12335;DHT22;6233;51.560;9.986;2023-04-06T07:39:25;11.20;93.60
12335;DHT22;6233;51.560;9.986;2023-04-06T07:42:28;11.20;94.00
12335;DHT22;6233;51.560;9.986;2023-04-06T07:45:30;11.30;93.90
12335;DHT22;6233;51.560;9.986;2023-04-06T07:48:31;11.20;92.00
12335;DHT22;6233;51.560;9.986;2023-04-06T07:51:37;11.00;93.30
12335;DHT22;6233;51.560;9.986;2023-04-06T07:54:40;11.30;95.50
12335;DHT22;6233;51.560;9.986;2023-04-06T07:57:43;11.50;94.10
12335;DHT22;6233;51.560;9.986;2023-04-06T08:00:45;11.50;93.00
12335;DHT22;6233;51.560;9.986;2023-04-06T08:03:47;11.40;92.30
12335;DHT22;6233;51.560;9.986;2023-04-06T08:06:49;11.50;92.40
12335;DHT22;6233;51.560;9.986;2023-04-06T08:09:51;11.50;93.40
12335;DHT22;6233;51.560;9.986;2023-04-06T08:13:20;11.60;93.00
12335;DHT22;6233;51.560;9.986;2023-04-06T08:16:23;11.80;92.00
12335;DHT22;6233;51.560;9.986;2023-04-06T08:19:25;11.70;92.10
12335;DHT22;6233;51.560;9.986;2023-04-06T08:22:27;11.70;91.30
12335;DHT22;6233;51.560;9.986;2023-04-06T08:25:29;11.80;92.60
12335;DHT22;6233;51.560;9.986;2023-04-06T08:28:31;12.10;91.10
12335;DHT22;6233;51.560;9.986;2023-04-06T08:31:34;12.10;91.10
12335;DHT22;6233;51.560;9.986;2023-04-06T08:34:47;12.40;90.80
12335;DHT22;6233;51.560;9.986;2023-04-06T08:37:49;12.60;90.40
12335;DHT22;6233;51.560;9.986;2023-04-06T08:40:50;12.40;90.60
12335;DHT22;6233;51.560;9.986;2023-04-06T08:43:59;12.30;90.30
12335;DHT22;6233;51.560;9.986;2023-04-06T08:47:04;12.30;91.70
12335;DHT22;6233;51.560;9.986;2023-04-06T08:50:08;12.30;90.70
12335;DHT22;6233;51.560;9.986;2023-04-06T08:53:11;12.60;90.20
12335;DHT22;6233;51.560;9.986;2023-04-06T08:56:13;12.50;88.90
12335;DHT22;6233;51.560;9.986;2023-04-06T08:59:15;12.30;90.60
12335;DHT22;6233;51.560;9.986;2023-04-06T09:02:18;12.20;89.60
12335;DHT22;6233;51.560;9.986;2023-04-06T09:05:21;12.00;91.80
12335;DHT22;6233;51.560;9.986;2023-04-06T09:08:25;12.00;90.90
12335;DHT22;6233;51.560;9.986;2023-04-06T09:11:48;12.00;90.30
12335;DHT22;6233;51.560;9.986;2023-04-06T09:14:51;12.30;90.60
12335;DHT22;6233;51.560;9.986;2023-04-06T09:17:53;12.70;85.90
12335;DHT22;6233;51.560;9.986;2023-04-06T09:21:06;12.60;86.70
12335;DHT22;6233;51.560;9.986;2023-04-06T09:24:08;12.40;86.80
12335;DHT22;6233;51.560;9.986;2023-04-06T09:27:11;12.50;87.00
12335;DHT22;6233;51.560;9.986;2023-04-06T09:30:14;12.60;84.50
12335;DHT22;6233;51.560;9.986;2023-04-06T09:33:23;12.90;82.70
12335;DHT22;6233;51.560;9.986;2023-04-06T09:36:33;12.80;79.40
12335;DHT22;6233;51.560;9.986;2023-04-06T09:43:35;13.30;84.00
12335;DHT22;6233;51.560;9.986;2023-04-06T09:46:44;13.40;79.40
12335;DHT22;6233;51.560;9.986;2023-04-06T09:50:02;13.30;77.90
12335;DHT22;6233;51.560;9.986;2023-04-06T09:53:04;13.10;78.10
12335;DHT22;6233;51.560;9.986;2023-04-06T09:56:09;13.00;79.50
12335;DHT22;6233;51.560;9.986;2023-04-06T10:06:23;13.70;76.70
12335;DHT22;6233;51.560;9.986;2023-04-06T10:09:29;13.50;75.40
12335;DHT22;6233;51.560;9.986;2023-04-06T10:12:38;13.30;77.20
12335;DHT22;6233;51.560;9.986;2023-04-06T10:15:42;13.10;79.00
12335;DHT22;6233;51.560;9.986;2023-04-06T10:18:48;13.00;78.50
12335;DHT22;6233;51.560;9.986;2023-04-06T10:21:55;12.70;78.70
12335;DHT22;6233;51.560;9.986;2023-04-06T10:24:58;12.10;78.50
12335;DHT22;6233;51.560;9.986;2023-04-06T10:28:07;12.00;79.20
12335;DHT22;6233;51.560;9.986;2023-04-06T10:31:09;11.90;78.60
12335;DHT22;6233;51.560;9.986;2023-04-06T10:34:10;11.80;77.10
12335;DHT22;6233;51.560;9.986;2023-04-06T10:37:16;11.80;81.50
12335;DHT22;6233;51.560;9.986;2023-04-06T10:40:25;11.80;80.60
12335;DHT22;6233;51.560;9.986;2023-04-06T10:43:33;11.90;79.00
12335;DHT22;6233;51.560;9.986;2023-04-06T10:46:36;11.80;81.00
12335;DHT22;6233;51.560;9.986;2023-04-06T10:49:38;11.90;79.00
12335;DHT22;6233;51.560;9.986;2023-04-06T10:52:40;12.10;81.40
12335;DHT22;6233;51.560;9.986;2023-04-06T10:55:43;12.30;78.90
12335;DHT22;6233;51.560;9.986;2023-04-06T10:58:47;12.20;77.50
12335;DHT22;6233;51.560;9.986;2023-04-06T11:01:51;12.30;80.80
12335;DHT22;6233;51.560;9.986;2023-04-06T11:04:57;12.10;77.00
12335;DHT22;6233;51.560;9.986;2023-04-06T11:07:59;12.00;78.00
12335;DHT22;6233;51.560;9.986;2023-04-06T11:14:10;12.00;82.40
12335;DHT22;6233;51.560;9.986;2023-04-06T11:17:12;11.90;86.10
12335;DHT22;6233;51.560;9.986;2023-04-06T11:20:14;11.90;87.90
12335;DHT22;6233;51.560;9.986;2023-04-06T11:23:23;11.90;85.70
12335;DHT22;6233;51.560;9.986;2023-04-06T11:29:48;11.80;88.00
12335;DHT22;6233;51.560;9.986;2023-04-06T11:32:51;11.70;88.70
12335;DHT22;6233;51.560;9.986;2023-04-06T11:35:57;11.50;92.00
12335;DHT22;6233;51.560;9.986;2023-04-06T11:39:05;11.50;89.00
12335;DHT22;6233;51.560;9.986;2023-04-06T11:42:07;11.40;89.70
12335;DHT22;6233;51.560;9.986;2023-04-06T11:45:15;11.40;89.60
12335;DHT22;6233;51.560;9.986;2023-04-06T11:48:18;11.30;89.60
12335;DHT22;6233;51.560;9.986;2023-04-06T11:51:24;11.40;91.10
12335;DHT22;6233;51.560;9.986;2023-04-06T11:54:35;11.40;90.80
12335;DHT22;6233;51.560;9.986;2023-04-06T11:57:37;11.30;91.80
12335;DHT22;6233;51.560;9.986;2023-04-06T12:00:39;11.30;91.30
12335;DHT22;6233;51.560;9.986;2023-04-06T12:03:47;11.30;91.30
12335;DHT22;6233;51.560;9.986;2023-04-06T12:06:50;11.30;91.70
12335;DHT22;6233;51.560;9.986;2023-04-06T12:09:52;11.20;90.80
12335;DHT22;6233;51.560;9.986;2023-04-06T12:12:54;11.20;92.20
12335;DHT22;6233;51.560;9.986;2023-04-06T12:15:55;11.30;90.90
12335;DHT22;6233;51.560;9.986;2023-04-06T12:18:57;11.20;90.90
12335;DHT22;6233;51.560;9.986;2023-04-06T12:21:59;11.10;91.20
12335;DHT22;6233;51.560;9.986;2023-04-06T12:25:01;11.10;90.90
12335;DHT22;6233;51.560;9.986;2023-04-06T12:28:39;11.10;90.40
12335;DHT22;6233;51.560;9.986;2023-04-06T12:31:41;11.10;91.00
12335;DHT22;6233;51.560;9.986;2023-04-06T12:34:46;11.20;92.50
12335;DHT22;6233;51.560;9.986;2023-04-06T12:37:47;11.40;92.20
12335;DHT22;6233;51.560;9.986;2023-04-06T12:40:55;11.40;88.30
12335;DHT22;6233;51.560;9.986;2023-04-06T12:43:58;11.40;91.80
12335;DHT22;6233;51.560;9.986;2023-04-06T12:47:01;11.20;91.30
12335;DHT22;6233;51.560;9.986;2023-04-06T12:50:04;11.10;91.60
12335;DHT22;6233;51.560;9.986;2023-04-06T12:53:10;11.10;90.30
12335;DHT22;6233;51.560;9.986;2023-04-06T12:56:17;11.10;89.30
12335;DHT22;6233;51.560;9.986;2023-04-06T12:59:19;11.10;92.10
12335;DHT22;6233;51.560;9.986;2023-04-06T13:02:22;11.30;90.20
12335;DHT22;6233;51.560;9.986;2023-04-06T13:05:24;11.20;86.80
12335;DHT22;6233;51.560;9.986;2023-04-06T13:08:29;11.20;85.80
12335;DHT22;6233;51.560;9.986;2023-04-06T13:11:30;11.30;88.00
12335;DHT22;6233;51.560;9.986;2023-04-06T13:14:33;11.50;87.70
12335;DHT22;6233;51.560;9.986;2023-04-06T13:17:34;11.60;87.90
12335;DHT22;6233;51.560;9.986;2023-04-06T13:20:36;11.60;89.30
12335;DHT22;6233;51.560;9.986;2023-04-06T13:23:39;11.70;90.50
12335;DHT22;6233;51.560;9.986;2023-04-06T13:26:47;11.80;88.50
12335;DHT22;6233;51.560;9.986;2023-04-06T13:29:49;11.70;87.30
12335;DHT22;6233;51.560;9.986;2023-04-06T13:32:51;11.60;86.40
12335;DHT22;6233;51.560;9.986;2023-04-06T13:36:03;11.60;84.90
12335;DHT22;6233;51.560;9.986;2023-04-06T13:39:10;11.40;88.60
12335;DHT22;6233;51.560;9.986;2023-04-06T13:42:12;11.40;89.00
12335;DHT22;6233;51.560;9.986;2023-04-06T13:45:14;11.40;88.00
12335;DHT22;6233;51.560;9.986;2023-04-06T13:48:19;11.40;90.50
12335;DHT22;6233;51.560;9.986;2023-04-06T13:51:21;11.50;87.30
12335;DHT22;6233;51.560;9.986;2023-04-06T13:54:23;11.40;90.20
12335;DHT22;6233;51.560;9.986;2023-04-06T13:57:25;11.50;88.20
12335;DHT22;6233;51.560;9.986;2023-04-06T14:00:27;11.60;88.70
12335;DHT22;6233;51.560;9.986;2023-04-06T14:03:28;11.70;88.90
12335;DHT22;6233;51.560;9.986;2023-04-06T14:06:45;11.70;87.20
12335;DHT22;6233;51.560;9.986;2023-04-06T14:09:47;11.80;86.50
12335;DHT22;6233;51.560;9.986;2023-04-06T14:12:49;11.80;88.10
12335;DHT22;6233;51.560;9.986;2023-04-06T14:15:55;11.60;85.90
12335;DHT22;6233;51.560;9.986;2023-04-06T14:18:56;11.70;87.20
12335;DHT22;6233;51.560;9.986;2023-04-06T14:21:59;11.60;87.30
12335;DHT22;6233;51.560;9.986;2023-04-06T14:25:01;11.50;90.00
12335;DHT22;6233;51.560;9.986;2023-04-06T14:28:03;11.60;90.20
12335;DHT22;6233;51.560;9.986;2023-04-06T14:31:14;11.70;90.50
12335;DHT22;6233;51.560;9.986;2023-04-06T14:34:17;11.70;87.30
12335;DHT22;6233;51.560;9.986;2023-04-06T14:37:19;11.70;90.40
12335;DHT22;6233;51.560;9.986;2023-04-06T14:40:22;11.60;88.80
12335;DHT22;6233;51.560;9.986;2023-04-06T14:43:24;11.60;91.50
12335;DHT22;6233;51.560;9.986;2023-04-06T14:46:27;11.50;91.50
12335;DHT22;6233;51.560;9.986;2023-04-06T14:49:29;11.60;89.90
12335;DHT22;6233;51.560;9.986;2023-04-06T14:52:31;11.60;91.50
12335;DHT22;6233;51.560;9.986;2023-04-06T14:55:41;11.60;89.00
12335;DHT22;6233;51.560;9.986;2023-04-06T14:58:43;11.70;90.70
12335;DHT22;6233;51.560;9.986;2023-04-06T15:01:45;11.70;91.50
12335;DHT22;6233;51.560;9.986;2023-04-06T15:04:47;11.70;92.10
12335;DHT22;6233;51.560;9.986;2023-04-06T15:07:49;11.80;90.40
12335;DHT22;6233;51.560;9.986;2023-04-06T15:10:51;11.80;89.30
12335;DHT22;6233;51.560;9.986;2023-04-06T15:13:53;11.70;91.20
12335;DHT22;6233;51.560;9.986;2023-04-06T15:16:55;11.60;88.10
12335;DHT22;6233;51.560;9.986;2023-04-06T15:19:57;11.60;89.90
12335;DHT22;6233;51.560;9.986;2023-04-06T15:22:58;11.50;90.20
12335;DHT22;6233;51.560;9.986;2023-04-06T15:26:01;11.50;90.30
12335;DHT22;6233;51.560;9.986;2023-04-06T15:29:02;11.50;92.10
12335;DHT22;6233;51.560;9.986;2023-04-06T15:32:04;11.50;91.90
12335;DHT22;6233;51.560;9.986;2023-04-06T15:35:10;11.50;90.90
12335;DHT22;6233;51.560;9.986;2023-04-06T15:42:35;11.30;90.80
12335;DHT22;6233;51.560;9.986;2023-04-06T15:45:37;11.30;91.50
12335;DHT22;6233;51.560;9.986;2023-04-06T15:48:39;11.30;91.50
12335;DHT22;6233;51.560;9.986;2023-04-06T15:51:41;11.30;90.70
12335;DHT22;6233;51.560;9.986;2023-04-06T15:54:43;11.30;90.00
12335;DHT22;6233;51.560;9.986;2023-04-06T15:57:45;11.30;91.10
12335;DHT22;6233;51.560;9.986;2023-04-06T16:00:47;11.30;90.60
12335;DHT22;6233;51.560;9.986;2023-04-06T16:03:48;11.30;91.00
12335;DHT22;6233;51.560;9.986;2023-04-06T16:06:50;11.30;90.90
12335;DHT22;6233;51.560;9.986;2023-04-06T16:09:52;11.30;90.50
12335;DHT22;6233;51.560;9.986;2023-04-06T16:12:54;11.30;91.00
12335;DHT22;6233;51.560;9.986;2023-04-06T16:15:56;11.40;89.70
12335;DHT22;6233;51.560;9.986;2023-04-06T16:18:58;11.40;90.50
12335;DHT22;6233;51.560;9.986;2023-04-06T16:22:00;11.40;90.40
12335;DHT22;6233;51.560;9.986;2023-04-06T16:25:17;11.40;91.40
12335;DHT22;6233;51.560;9.986;2023-04-06T16:28:19;11.40;89.30
12335;DHT22;6233;51.560;9.986;2023-04-06T16:31:24;11.30;88.90
12335;DHT22;6233;51.560;9.986;2023-04-06T16:34:32;11.30;89.80
12335;DHT22;6233;51.560;9.986;2023-04-06T16:37:34;11.30;90.20
12335;DHT22;6233;51.560;9.986;2023-04-06T16:40:36;11.30;90.90
12335;DHT22;6233;51.560;9.986;2023-04-06T16:43:38;11.30;90.20
12335;DHT22;6233;51.560;9.986;2023-04-06T16:46:40;11.40;89.40
12335;DHT22;6233;51.560;9.986;2023-04-06T16:49:45;11.40;87.70
12335;DHT22;6233;51.560;9.986;2023-04-06T16:52:47;11.40;87.60
12335;DHT22;6233;51.560;9.986;2023-04-06T16:55:48;11.40;86.30
12335;DHT22;6233;51.560;9.986;2023-04-06T16:58:50;11.40;87.00
12335;DHT22;6233;51.560;9.986;2023-04-06T17:01:52;11.40;86.80
12335;DHT22;6233;51.560;9.986;2023-04-06T17:04:54;11.40;85.60
12335;DHT22;6233;51.560;9.986;2023-04-06T17:07:56;11.30;84.30
12335;DHT22;6233;51.560;9.986;2023-04-06T17:10:58;11.20;84.90
12335;DHT22;6233;51.560;9.986;2023-04-06T17:14:06;11.20;85.50
12335;DHT22;6233;51.560;9.986;2023-04-06T17:17:08;11.10;84.50
12335;DHT22;6233;51.560;9.986;2023-04-06T17:20:10;11.00;84.60
12335;DHT22;6233;51.560;9.986;2023-04-06T17:23:13;11.00;87.10
12335;DHT22;6233;51.560;9.986;2023-04-06T17:26:15;10.90;87.60
12335;DHT22;6233;51.560;9.986;2023-04-06T17:29:17;10.90;89.10
12335;DHT22;6233;51.560;9.986;2023-04-06T17:32:19;10.80;89.90
12335;DHT22;6233;51.560;9.986;2023-04-06T17:35:22;10.80;90.40
12335;DHT22;6233;51.560;9.986;2023-04-06T17:38:24;10.80;90.80
12335;DHT22;6233;51.560;9.986;2023-04-06T17:41:26;10.70;91.50
12335;DHT22;6233;51.560;9.986;2023-04-06T17:44:32;10.60;90.90
12335;DHT22;6233;51.560;9.986;2023-04-06T17:47:34;10.60;91.30
12335;DHT22;6233;51.560;9.986;2023-04-06T17:50:37;10.50;91.80
12335;DHT22;6233;51.560;9.986;2023-04-06T17:53:42;10.50;91.80
12335;DHT22;6233;51.560;9.986;2023-04-06T17:56:44;10.40;91.70
12335;DHT22;6233;51.560;9.986;2023-04-06T17:59:49;10.30;91.90
12335;DHT22;6233;51.560;9.986;2023-04-06T18:02:51;10.30;92.30
12335;DHT22;6233;51.560;9.986;2023-04-06T18:05:53;10.20;92.60
12335;DHT22;6233;51.560;9.986;2023-04-06T18:08:55;10.20;93.20
12335;DHT22;6233;51.560;9.986;2023-04-06T18:11:59;10.10;94.00
12335;DHT22;6233;51.560;9.986;2023-04-06T18:15:03;10.10;93.90
12335;DHT22;6233;51.560;9.986;2023-04-06T18:18:05;10.00;93.90
12335;DHT22;6233;51.560;9.986;2023-04-06T18:21:08;10.00;94.50
12335;DHT22;6233;51.560;9.986;2023-04-06T18:24:09;9.90;95.10
12335;DHT22;6233;51.560;9.986;2023-04-06T18:27:23;9.90;95.10
12335;DHT22;6233;51.560;9.986;2023-04-06T18:30:25;9.80;95.90
12335;DHT22;6233;51.560;9.986;2023-04-06T18:33:27;9.80;96.00
12335;DHT22;6233;51.560;9.986;2023-04-06T18:36:29;9.70;96.00
12335;DHT22;6233;51.560;9.986;2023-04-06T18:39:32;9.70;96.20
12335;DHT22;6233;51.560;9.986;2023-04-06T18:42:34;9.60;96.50
12335;DHT22;6233;51.560;9.986;2023-04-06T18:45:36;9.60;96.90
12335;DHT22;6233;51.560;9.986;2023-04-06T18:48:43;9.50;97.40
12335;DHT22;6233;51.560;9.986;2023-04-06T18:51:47;9.40;97.90
12335;DHT22;6233;51.560;9.986;2023-04-06T18:54:49;9.40;98.50
12335;DHT22;6233;51.560;9.986;2023-04-06T18:57:51;9.30;98.90
12335;DHT22;6233;51.560;9.986;2023-04-06T19:00:53;9.20;99.40
12335;DHT22;6233;51.560;9.986;2023-04-06T19:03:56;9.20;99.40
12335;DHT22;6233;51.560;9.986;2023-04-06T19:06:59;9.20;99.50
12335;DHT22;6233;51.560;9.986;2023-04-06T19:10:01;9.20;99.10
12335;DHT22;6233;51.560;9.986;2023-04-06T19:13:04;9.10;98.90
12335;DHT22;6233;51.560;9.986;2023-04-06T19:16:09;9.10;98.70
12335;DHT22;6233;51.560;9.986;2023-04-06T19:19:11;9.00;98.90
12335;DHT22;6233;51.560;9.986;2023-04-06T19:22:13;9.00;98.40
12335;DHT22;6233;51.560;9.986;2023-04-06T19:25:17;8.90;98.70
12335;DHT22;6233;51.560;9.986;2023-04-06T19:28:19;8.90;98.30
12335;DHT22;6233;51.560;9.986;2023-04-06T19:31:21;8.90;98.70
12335;DHT22;6233;51.560;9.986;2023-04-06T19:34:23;8.80;98.50
12335;DHT22;6233;51.560;9.986;2023-04-06T19:37:25;8.80;99.00
12335;DHT22;6233;51.560;9.986;2023-04-06T19:40:27;8.80;98.90
12335;DHT22;6233;51.560;9.986;2023-04-06T19:43:29;8.70;98.70
12335;DHT22;6233;51.560;9.986;2023-04-06T19:46:31;8.70;98.80
12335;DHT22;6233;51.560;9.986;2023-04-06T19:49:32;8.60;99.10
12335;DHT22;6233;51.560;9.986;2023-04-06T19:52:34;8.60;98.90
12335;DHT22;6233;51.560;9.986;2023-04-06T19:55:37;8.60;98.70
12335;DHT22;6233;51.560;9.986;2023-04-06T19:58:39;8.50;98.50
12335;DHT22;6233;51.560;9.986;2023-04-06T20:01:40;8.50;98.40
12335;DHT22;6233;51.560;9.986;2023-04-06T20:04:42;8.50;98.60